createdAt,value
2023-04-28T00:00:04.833Z,97492.25
2023-04-28T00:02:31.582Z,97493.81
2023-04-28T00:04:58.418Z,97490.28
2023-04-28T00:07:25.377Z,97486.78
2023-04-28T00:09:51.996Z,97488.50
2023-04-28T00:12:18.634Z,97495.03
2023-04-28T00:14:45.468Z,97493.41
2023-04-28T00:17:12.053Z,97491.88
2023-04-28T00:19:38.880Z,97487.94
2023-04-28T00:22:06.334Z,97492.00
2023-04-28T00:24:33.893Z,97492.81
2023-04-28T00:27:01.429Z,97485.38
2023-04-28T00:29:28.916Z,97488.34
2023-04-28T00:31:55.379Z,97491.50
2023-04-28T00:34:21.957Z,97489.63
2023-04-28T00:36:48.580Z,97496.34
2023-04-28T00:39:18.436Z,97499.50
2023-04-28T00:41:45.054Z,97471.09
2023-04-28T00:44:11.776Z,97501.84
2023-04-28T00:46:38.659Z,97498.00
2023-04-28T00:49:05.995Z,97504.44
2023-04-28T00:51:33.937Z,97506.34
2023-04-28T00:54:01.047Z,97502.06
2023-04-28T00:56:31.151Z,97498.28
2023-04-28T00:58:58.353Z,97496.28
2023-04-28T01:01:25.548Z,97500.00
2023-04-28T01:03:52.596Z,97500.00
2023-04-28T01:06:20.501Z,97502.03
2023-04-28T01:08:53.391Z,97496.03
2023-04-28T01:11:20.065Z,97503.94
2023-04-28T01:13:46.662Z,97500.84
2023-04-28T01:16:13.383Z,97500.50
2023-04-28T01:18:46.932Z,97507.19
2023-04-28T01:21:13.572Z,97502.84
2023-04-28T01:23:40.207Z,97503.94
2023-04-28T01:26:06.836Z,97501.59
2023-04-28T01:28:33.424Z,97504.75
2023-04-28T01:31:00.211Z,97509.81
2023-04-28T01:33:26.813Z,97502.25
2023-04-28T01:35:57.925Z,97503.06
2023-04-28T01:38:24.546Z,97496.66
2023-04-28T01:40:51.136Z,97499.47
2023-04-28T01:43:17.756Z,97498.31
2023-04-28T01:45:44.528Z,97497.84
2023-04-28T01:48:11.376Z,97503.34
2023-04-28T01:50:38.027Z,97492.66
2023-04-28T01:53:04.625Z,97485.50
2023-04-28T01:55:31.256Z,97488.66
2023-04-28T01:57:58.508Z,97494.19
2023-04-28T02:00:25.786Z,97490.22
2023-04-28T02:02:52.783Z,97499.81
2023-04-28T02:05:19.492Z,97495.44
2023-04-28T02:07:46.415Z,97507.44
2023-04-28T02:10:13.256Z,97502.31
2023-04-28T02:12:41.689Z,97504.66
2023-04-28T02:15:09.222Z,97500.72
2023-04-28T02:17:35.872Z,97491.69
2023-04-28T02:20:02.500Z,97510.22
2023-04-28T02:22:29.118Z,97511.78
2023-04-28T02:24:55.744Z,97514.19
2023-04-28T02:27:22.500Z,97515.41
2023-04-28T02:29:49.466Z,97509.44
2023-04-28T02:32:16.087Z,97513.88
2023-04-28T02:34:42.702Z,97512.34
2023-04-28T02:37:09.408Z,97517.19
2023-04-28T02:39:36.087Z,97514.81
2023-04-28T02:42:05.497Z,97518.38
2023-04-28T02:44:32.109Z,97520.75
2023-04-28T02:46:58.865Z,97526.38
2023-04-28T02:49:25.519Z,97523.22
2023-04-28T02:51:52.082Z,97523.22
2023-04-28T02:54:27.509Z,97525.69
2023-04-28T02:56:57.945Z,97526.50
2023-04-28T02:59:25.203Z,97530.81
2023-04-28T03:01:54.380Z,97536.03
2023-04-28T03:04:21.453Z,97540.03
2023-04-28T03:06:48.296Z,97532.44
2023-04-28T03:09:15.638Z,97540.81
2023-04-28T03:11:42.267Z,97544.00
2023-04-28T03:14:08.869Z,97540.47
2023-04-28T03:16:35.784Z,97549.25
2023-04-28T03:19:02.531Z,97551.75
2023-04-28T03:21:29.118Z,97547.41
2023-04-28T03:23:55.747Z,97543.00
2023-04-28T03:26:22.387Z,97544.25
2023-04-28T03:28:49.222Z,97556.56
2023-04-28T03:31:15.964Z,97561.38
2023-04-28T03:33:45.478Z,97557.03
2023-04-28T03:36:12.069Z,97569.66
2023-04-28T03:38:38.965Z,97566.56
2023-04-28T03:41:05.775Z,97570.59
2023-04-28T03:43:33.475Z,97578.94
2023-04-28T03:46:00.192Z,97585.25
2023-04-28T03:48:27.056Z,97584.41
2023-04-28T03:50:53.760Z,97593.13
2023-04-28T03:53:20.857Z,97592.31
2023-04-28T03:55:47.564Z,97585.63
2023-04-28T03:58:14.220Z,97599.06
2023-04-28T04:00:40.886Z,97602.69
2023-04-28T04:03:08.315Z,97597.13
2023-04-28T04:05:35.209Z,97603.03
2023-04-28T04:08:03.189Z,97606.66
2023-04-28T04:10:29.803Z,97612.72
2023-04-28T04:12:56.425Z,97611.59
2023-04-28T04:15:23.120Z,97610.34
2023-04-28T04:17:49.798Z,97619.81
2023-04-28T04:20:16.450Z,97616.25
2023-04-28T04:22:43.050Z,97621.31
2023-04-28T04:25:09.713Z,97622.50
2023-04-28T04:27:36.332Z,97619.72
2023-04-28T04:30:03.040Z,97624.91
2023-04-28T04:32:29.662Z,97623.63
2023-04-28T04:34:57.324Z,97628.34
2023-04-28T04:37:23.998Z,97629.13
2023-04-28T04:39:50.584Z,97622.31
2023-04-28T04:42:23.973Z,97621.81
2023-04-28T04:44:52.271Z,97617.72
2023-04-28T04:47:19.228Z,97623.59
2023-04-28T04:49:45.874Z,97620.00
2023-04-28T04:52:12.521Z,97625.44
2023-04-28T04:54:39.181Z,97627.28
2023-04-28T04:57:06.810Z,97635.56
2023-04-28T04:59:33.606Z,97633.81
2023-04-28T05:02:00.254Z,97630.06
2023-04-28T05:04:26.950Z,97630.44
2023-04-28T05:06:53.799Z,97632.13
2023-04-28T05:09:20.362Z,97634.69
2023-04-28T05:11:47.044Z,97626.72
2023-04-28T05:14:13.824Z,97618.13
2023-04-28T05:16:42.098Z,97616.44
2023-04-28T05:19:08.823Z,97619.31
2023-04-28T05:21:35.922Z,97609.53
2023-04-28T05:24:02.495Z,97619.72
2023-04-28T05:26:29.138Z,97616.47
2023-04-28T05:28:55.785Z,97613.56
2023-04-28T05:31:22.377Z,97613.00
2023-04-28T05:33:48.980Z,97607.22
2023-04-28T05:36:17.125Z,97612.09
2023-04-28T05:38:44.242Z,97605.81
2023-04-28T05:41:10.865Z,97601.88
2023-04-28T05:43:37.463Z,97602.50
2023-04-28T05:46:07.860Z,97596.44
2023-04-28T05:48:38.886Z,97590.88
2023-04-28T05:51:05.533Z,97589.78
2023-04-28T05:53:32.129Z,97595.47
2023-04-28T05:55:58.749Z,97587.88
2023-04-28T05:58:25.359Z,97572.81
2023-04-28T06:00:51.967Z,97560.59
2023-04-28T06:03:19.364Z,97550.34
2023-04-28T06:05:46.377Z,97553.16
2023-04-28T06:08:13.066Z,97536.78
2023-04-28T06:10:39.747Z,97535.81
2023-04-28T06:13:06.613Z,97545.91
2023-04-28T06:15:33.960Z,97533.66
2023-04-28T06:18:00.756Z,97529.56
2023-04-28T06:20:27.496Z,97537.44
2023-04-28T06:22:54.225Z,97537.09
2023-04-28T06:25:20.812Z,97532.91
2023-04-28T06:27:47.567Z,97538.34
2023-04-28T06:30:23.306Z,97530.38
2023-04-28T06:32:50.032Z,97563.00
2023-04-28T06:35:16.847Z,97563.97
2023-04-28T06:37:43.680Z,97567.91
2023-04-28T06:40:11.141Z,97561.25
2023-04-28T06:42:37.838Z,97559.63
2023-04-28T06:45:04.768Z,97568.63
2023-04-28T06:47:31.394Z,97580.66
2023-04-28T06:49:58.038Z,97565.34
2023-04-28T06:52:33.146Z,97582.69
2023-04-28T06:55:09.775Z,97572.22
2023-04-28T06:57:38.412Z,97585.63
2023-04-28T07:00:06.035Z,97569.84
2023-04-28T07:02:32.825Z,97562.22
2023-04-28T07:04:59.778Z,97574.94
2023-04-28T07:07:26.624Z,97567.78
2023-04-28T07:09:53.616Z,97567.44
2023-04-28T07:12:21.474Z,97553.69
2023-04-28T07:14:48.569Z,97557.25
2023-04-28T07:17:15.146Z,97554.47
2023-04-28T07:19:41.691Z,97568.31
2023-04-28T07:22:08.333Z,97555.59
2023-04-28T07:24:34.936Z,97551.25
2023-04-28T07:27:01.970Z,97562.44
2023-04-28T07:29:34.003Z,97560.03
2023-04-28T07:32:01.678Z,97556.97
2023-04-28T07:34:28.458Z,97556.91
2023-04-28T07:36:55.219Z,97548.41
2023-04-28T07:39:21.901Z,97541.06
2023-04-28T07:41:48.536Z,97545.84
2023-04-28T07:44:15.299Z,97545.84
2023-04-28T07:46:42.110Z,97546.56
2023-04-28T07:49:09.843Z,97544.81
2023-04-28T07:51:36.578Z,97554.47
2023-04-28T07:54:03.289Z,97546.19
2023-04-28T07:56:30.297Z,97543.50
2023-04-28T07:58:57.114Z,97551.13
2023-04-28T08:01:23.789Z,97541.38
2023-04-28T08:03:50.536Z,97548.94
2023-04-28T08:06:17.408Z,97531.00
2023-04-28T08:08:44.080Z,97546.25
2023-04-28T08:11:10.721Z,97541.13
2023-04-28T08:13:37.469Z,97551.41
2023-04-28T08:16:04.405Z,97543.28
2023-04-28T08:18:31.739Z,97542.69
2023-04-28T08:20:58.251Z,97543.63
2023-04-28T08:23:28.358Z,97549.94
2023-04-28T08:25:55.343Z,97568.16
2023-04-28T08:28:21.949Z,97561.16
2023-04-28T08:30:48.810Z,97572.38
2023-04-28T08:33:15.630Z,97561.19
2023-04-28T08:35:42.365Z,97569.75
2023-04-28T08:38:13.941Z,97566.69
2023-04-28T08:40:42.872Z,97570.19
2023-04-28T08:43:14.004Z,97563.34
2023-04-28T08:45:45.841Z,97561.25
2023-04-28T08:48:21.651Z,97553.25
2023-04-28T08:50:54.701Z,97558.31
2023-04-28T08:53:26.098Z,97554.63
2023-04-28T08:55:56.541Z,97554.22
2023-04-28T08:58:27.542Z,97558.81
2023-04-28T09:00:54.717Z,97548.94
2023-04-28T09:03:21.941Z,97542.09
2023-04-28T09:05:49.256Z,97536.81
2023-04-28T09:08:16.112Z,97543.13
2023-04-28T09:10:42.859Z,97537.06
2023-04-28T09:13:09.775Z,97533.31
2023-04-28T09:15:40.949Z,97536.22
2023-04-28T09:18:08.779Z,97525.25
2023-04-28T09:20:36.570Z,97522.72
2023-04-28T09:23:20.213Z,97526.38
2023-04-28T09:26:09.200Z,97526.66
2023-04-28T09:28:36.583Z,97514.13
2023-04-28T09:31:03.144Z,97510.34
2023-04-28T09:33:30.043Z,97510.63
2023-04-28T09:35:56.825Z,97512.53
2023-04-28T09:38:23.793Z,97512.41
2023-04-28T09:41:03.083Z,97500.25
2023-04-28T09:43:32.311Z,97497.47
2023-04-28T09:46:01.914Z,97496.41
2023-04-28T09:48:34.746Z,97493.94
2023-04-28T09:51:04.071Z,97473.78
2023-04-28T09:53:30.990Z,97485.31
2023-04-28T09:55:59.160Z,97475.19
2023-04-28T09:58:27.458Z,97476.69
2023-04-28T10:00:59.318Z,97470.00
2023-04-28T10:03:29.541Z,97466.81
2023-04-28T10:05:58.358Z,97460.22
2023-04-28T10:08:27.270Z,97457.50
2023-04-28T10:10:54.861Z,97459.13
2023-04-28T10:13:22.208Z,97443.25
2023-04-28T10:15:55.443Z,97447.66
2023-04-28T10:18:25.893Z,97445.63
2023-04-28T10:21:01.094Z,97448.97
2023-04-28T10:23:31.425Z,97447.88
2023-04-28T10:26:00.009Z,97441.63
2023-04-28T10:28:29.989Z,97448.44
2023-04-28T10:31:13.163Z,97442.06
2023-04-28T10:33:41.045Z,97436.41
2023-04-28T10:36:08.278Z,97431.81
2023-04-28T10:38:36.319Z,97426.53
2023-04-28T10:41:03.480Z,97419.91
2023-04-28T10:43:32.974Z,97414.91
2023-04-28T10:46:01.374Z,97411.66
2023-04-28T10:48:34.738Z,97399.94
2023-04-28T10:51:04.465Z,97403.13
2023-04-28T10:53:47.104Z,97393.16
2023-04-28T10:56:27.011Z,97395.28
2023-04-28T10:58:55.122Z,97399.56
2023-04-28T11:01:22.100Z,97385.25
2023-04-28T11:04:00.753Z,97394.72
2023-04-28T11:06:29.633Z,97387.84
2023-04-28T11:09:00.949Z,97380.94
2023-04-28T11:11:29.429Z,97380.66
2023-04-28T11:14:20.581Z,97369.41
2023-04-28T11:16:54.447Z,97377.72
2023-04-28T11:19:25.568Z,97365.72
2023-04-28T11:21:55.056Z,97361.31
2023-04-28T11:24:22.405Z,97361.72
2023-04-28T11:26:48.971Z,97363.28
2023-04-28T11:29:15.737Z,97363.28
2023-04-28T11:31:51.423Z,97346.53
2023-04-28T11:34:22.665Z,97353.53
2023-04-28T11:36:49.525Z,97342.47
2023-04-28T11:39:16.296Z,97327.81
2023-04-28T11:41:45.429Z,97317.75
2023-04-28T11:44:16.393Z,97326.63
2023-04-28T11:47:01.288Z,97333.50
2023-04-28T11:49:30.852Z,97328.66
2023-04-28T11:52:00.330Z,97325.28
2023-04-28T11:54:29.161Z,97314.44
2023-04-28T11:56:57.573Z,97320.91
2023-04-28T11:59:29.362Z,97311.50
2023-04-28T12:02:01.001Z,97320.13
2023-04-28T12:04:36.478Z,97309.78
2023-04-28T12:07:10.188Z,97306.09
2023-04-28T12:09:38.561Z,97286.44
2023-04-28T12:12:07.391Z,97280.13
2023-04-28T12:14:57.849Z,97248.91
2023-04-28T12:17:29.147Z,97282.31
2023-04-28T12:19:57.456Z,97275.09
2023-04-28T12:22:25.072Z,97279.97
2023-04-28T12:25:12.529Z,97268.06
2023-04-28T12:27:40.765Z,97285.41
2023-04-28T12:30:26.489Z,97265.03
2023-04-28T12:32:53.998Z,97282.38
2023-04-28T12:35:22.481Z,97261.13
2023-04-28T12:37:49.145Z,97279.31
2023-04-28T12:40:15.807Z,97276.19
2023-04-28T12:42:42.473Z,97261.19
2023-04-28T12:45:09.721Z,97268.94
2023-04-28T12:47:37.953Z,97265.31
2023-04-28T12:50:05.783Z,97265.81
2023-04-28T12:52:37.507Z,97256.28
2023-04-28T12:55:04.763Z,97264.56
2023-04-28T12:57:31.555Z,97267.41
2023-04-28T12:59:58.281Z,97268.50
2023-04-28T13:02:25.296Z,97260.50
2023-04-28T13:04:53.181Z,97249.09
2023-04-28T13:07:20.185Z,97241.59
2023-04-28T13:09:47.799Z,97254.28
2023-04-28T13:12:15.647Z,97255.63
2023-04-28T13:14:42.397Z,97256.59
2023-04-28T13:17:10.201Z,97258.97
2023-04-28T13:19:37.514Z,97249.16
2023-04-28T13:22:06.050Z,97249.16
2023-04-28T13:24:36.235Z,97233.56
2023-04-28T13:27:03.977Z,97230.22
2023-04-28T13:29:30.642Z,97242.19
2023-04-28T13:31:57.458Z,97244.50
2023-04-28T13:34:24.096Z,97248.06
2023-04-28T13:36:54.025Z,97231.75
2023-04-28T13:39:22.166Z,97237.44
2023-04-28T13:41:49.511Z,97231.78
2023-04-28T13:44:16.796Z,97215.19
2023-04-28T13:46:43.617Z,97215.47
2023-04-28T13:49:10.908Z,97226.09
2023-04-28T13:51:37.858Z,97226.09
2023-04-28T13:54:05.462Z,97200.44
2023-04-28T13:56:32.342Z,97213.44
2023-04-28T13:58:59.074Z,97199.94
2023-04-28T14:01:26.061Z,97218.03
2023-04-28T14:03:52.768Z,97206.75
2023-04-28T14:06:19.923Z,97199.50
2023-04-28T14:08:46.824Z,97199.44
2023-04-28T14:11:13.746Z,97196.91
2023-04-28T14:13:41.059Z,97194.06
2023-04-28T14:16:07.794Z,97197.44
2023-04-28T14:18:34.522Z,97194.31
2023-04-28T14:21:02.381Z,97179.56
2023-04-28T14:23:29.821Z,97190.69
2023-04-28T14:25:58.131Z,97199.78
2023-04-28T14:28:24.918Z,97192.75
2023-04-28T14:30:54.262Z,97187.59
2023-04-28T14:33:20.999Z,97186.56
2023-04-28T14:35:48.091Z,97186.56
2023-04-28T14:38:14.776Z,97182.66
2023-04-28T14:40:43.082Z,97182.69
2023-04-28T14:43:09.800Z,97160.69
2023-04-28T14:45:38.186Z,97171.28
2023-04-28T14:48:06.963Z,97175.19
2023-04-28T14:50:33.888Z,97167.94
2023-04-28T14:53:05.408Z,97161.44
2023-04-28T14:55:32.805Z,97168.69
2023-04-28T14:57:59.461Z,97163.53
2023-04-28T15:00:26.076Z,97165.34
2023-04-28T15:02:53.363Z,97165.31
2023-04-28T15:05:19.980Z,97166.63
2023-04-28T15:07:46.693Z,97164.56
2023-04-28T15:10:13.296Z,97166.13
2023-04-28T15:12:40.147Z,97166.13
2023-04-28T15:15:07.803Z,97163.53
2023-04-28T15:17:34.851Z,97171.28
2023-04-28T15:20:01.587Z,97167.69
2023-04-28T15:22:28.154Z,97165.88
2023-04-28T15:24:55.920Z,97165.34
2023-04-28T15:27:23.253Z,97172.06
2023-04-28T15:29:50.785Z,97172.59
2023-04-28T15:32:17.597Z,97168.16
2023-04-28T15:34:44.272Z,97169.22
2023-04-28T15:37:42.580Z,97161.97
2023-04-28T15:40:12.430Z,97162.75
2023-04-28T15:42:42.031Z,97157.31
2023-04-28T15:45:13.421Z,97156.53
2023-04-28T15:47:40.674Z,97158.81
2023-04-28T15:50:09.193Z,97157.03
2023-04-28T15:52:38.542Z,97147.44
2023-04-28T15:55:05.619Z,97136.06
2023-04-28T15:57:32.212Z,97145.06
2023-04-28T15:59:58.806Z,97156.19
2023-04-28T16:02:25.579Z,97162.88
2023-04-28T16:04:52.788Z,97158.22
2023-04-28T16:07:19.626Z,97152.47
2023-04-28T16:09:46.647Z,97150.91
2023-04-28T16:12:13.238Z,97154.69
2023-04-28T16:14:39.831Z,97147.66
2023-04-28T16:17:06.453Z,97150.72
2023-04-28T16:19:33.619Z,97138.59
2023-04-28T16:22:01.513Z,97147.84
2023-04-28T16:24:28.777Z,97126.34
2023-04-28T16:26:55.992Z,97142.13
2023-04-28T16:29:23.671Z,97144.66
2023-04-28T16:31:50.597Z,97157.34
2023-04-28T16:34:19.278Z,97155.19
2023-04-28T16:36:45.985Z,97158.50
2023-04-28T16:39:13.265Z,97160.78
2023-04-28T16:41:39.891Z,97157.41
2023-04-28T16:44:06.567Z,97152.63
2023-04-28T16:46:33.456Z,97164.75
2023-04-28T16:49:00.483Z,97158.53
2023-04-28T16:51:28.336Z,97159.97
2023-04-28T16:53:54.921Z,97160.94
2023-04-28T16:56:21.873Z,97165.53
2023-04-28T16:58:48.486Z,97158.50
2023-04-28T17:01:15.263Z,97165.34
2023-04-28T17:03:42.325Z,97160.13
2023-04-28T17:06:09.344Z,97162.03
2023-04-28T17:08:35.980Z,97170.78
2023-04-28T17:11:04.695Z,97175.34
2023-04-28T17:13:32.918Z,97187.09
2023-04-28T17:16:00.412Z,97179.38
2023-04-28T17:18:27.215Z,97173.63
2023-04-28T17:20:54.380Z,97185.03
2023-04-28T17:23:21.040Z,97184.69
2023-04-28T17:25:47.644Z,97190.63
2023-04-28T17:28:14.314Z,97185.78
2023-04-28T17:30:43.824Z,97195.97
2023-04-28T17:33:13.628Z,97206.53
2023-04-28T17:35:40.372Z,97208.91
2023-04-28T17:38:07.040Z,97203.09
2023-04-28T17:40:33.672Z,97214.22
2023-04-28T17:43:00.409Z,97214.63
2023-04-28T17:45:27.066Z,97220.84
2023-04-28T17:47:53.771Z,97227.06
2023-04-28T17:50:20.540Z,97225.00
2023-04-28T17:52:47.115Z,97229.19
2023-04-28T17:55:14.299Z,97240.25
2023-04-28T17:57:41.231Z,97244.28
2023-04-28T18:00:08.460Z,97247.06
2023-04-28T18:02:35.279Z,97251.63
2023-04-28T18:05:02.181Z,97251.69
2023-04-28T18:07:29.080Z,97259.84
2023-04-28T18:09:57.337Z,97257.47
2023-04-28T18:12:26.054Z,97266.59
2023-04-28T18:14:54.051Z,97267.69
2023-04-28T18:17:21.143Z,97271.50
2023-04-28T18:19:51.339Z,97279.06
2023-04-28T18:22:18.629Z,97271.91
2023-04-28T18:24:45.244Z,97291.38
2023-04-28T18:27:11.986Z,97279.34
2023-04-28T18:29:38.701Z,97286.09
2023-04-28T18:32:05.526Z,97283.53
2023-04-28T18:34:32.146Z,97290.41
2023-04-28T18:36:58.754Z,97294.94
2023-04-28T18:39:25.984Z,97297.47
2023-04-28T18:41:52.717Z,97283.88
2023-04-28T18:44:19.282Z,97295.19
2023-04-28T18:46:45.957Z,97299.41
2023-04-28T18:49:13.001Z,97305.69
2023-04-28T18:51:39.644Z,97308.00
2023-04-28T18:54:06.888Z,97309.41
2023-04-28T18:56:33.424Z,97309.25
2023-04-28T18:59:00.013Z,97311.28
2023-04-28T19:01:27.428Z,97316.56
2023-04-28T19:03:54.551Z,97310.88
2023-04-28T19:06:22.295Z,97310.84
2023-04-28T19:08:48.782Z,97313.13
2023-04-28T19:11:15.740Z,97316.38
2023-04-28T19:13:44.695Z,97313.56
2023-04-28T19:16:11.375Z,97322.75
2023-04-28T19:18:39.640Z,97308.09
2023-04-28T19:21:06.244Z,97315.31
2023-04-28T19:23:32.895Z,97322.47
2023-04-28T19:26:00.066Z,97324.66
2023-04-28T19:28:26.845Z,97326.69
2023-04-28T19:30:54.692Z,97324.94
2023-04-28T19:33:27.805Z,97326.13
2023-04-28T19:35:55.046Z,97317.25
2023-04-28T19:38:25.581Z,97300.53
2023-04-28T19:41:01.326Z,97316.72
2023-04-28T19:43:27.964Z,97319.47
2023-04-28T19:45:54.711Z,97323.06
2023-04-28T19:48:21.421Z,97321.75
2023-04-28T19:50:48.011Z,97316.81
2023-04-28T19:53:15.037Z,97321.75
2023-04-28T19:55:41.598Z,97319.63
2023-04-28T19:58:10.140Z,97321.84
2023-04-28T20:00:37.001Z,97321.84
2023-04-28T20:03:04.088Z,97326.00
2023-04-28T20:05:31.402Z,97314.44
2023-04-28T20:07:58.056Z,97317.81
2023-04-28T20:10:24.878Z,97322.16
2023-04-28T20:12:51.734Z,97324.84
2023-04-28T20:15:18.725Z,97314.84
2023-04-28T20:17:46.219Z,97310.34
2023-04-28T20:20:13.505Z,97304.19
2023-04-28T20:22:43.207Z,97311.72
2023-04-28T20:25:10.928Z,97297.44
2023-04-28T20:27:37.696Z,97311.09
2023-04-28T20:30:04.980Z,97308.09
2023-04-28T20:32:31.828Z,97306.97
2023-04-28T20:34:58.581Z,97301.25
2023-04-28T20:37:26.669Z,97303.34
2023-04-28T20:39:53.620Z,97303.88
2023-04-28T20:42:20.324Z,97282.59
2023-04-28T20:44:46.928Z,97311.28
2023-04-28T20:47:14.017Z,97307.56
2023-04-28T20:49:40.680Z,97306.19
2023-04-28T20:52:07.332Z,97313.25
2023-04-28T20:54:36.085Z,97319.53
2023-04-28T20:57:04.807Z,97314.41
2023-04-28T20:59:32.931Z,97318.13
2023-04-28T21:01:59.905Z,97300.50
2023-04-28T21:04:26.734Z,97309.56
2023-04-28T21:06:56.588Z,97315.63
2023-04-28T21:09:26.656Z,97316.59
2023-04-28T21:11:55.030Z,97310.31
2023-04-28T21:14:22.257Z,97312.97
2023-04-28T21:16:49.533Z,97310.59
2023-04-28T21:19:17.172Z,97313.44
2023-04-28T21:21:43.776Z,97307.94
2023-04-28T21:24:10.456Z,97290.91
2023-04-28T21:26:37.118Z,97310.38
2023-04-28T21:29:03.704Z,97305.03
2023-04-28T21:31:30.803Z,97309.50
2023-04-28T21:33:57.744Z,97293.13
2023-04-28T21:36:24.400Z,97306.50
2023-04-28T21:38:51.582Z,97290.44
2023-04-28T21:41:18.211Z,97309.00
2023-04-28T21:43:44.864Z,97311.84
2023-04-28T21:46:11.537Z,97306.28
2023-04-28T21:48:38.603Z,97314.41
2023-04-28T21:51:05.533Z,97311.69
2023-04-28T21:53:32.156Z,97309.41
2023-04-28T21:55:58.776Z,97312.31
2023-04-28T21:58:25.405Z,97319.72
2023-04-28T22:00:52.379Z,97320.16
2023-04-28T22:03:19.160Z,97312.91
2023-04-28T22:05:46.050Z,97324.63
2023-04-28T22:08:17.238Z,97328.53
2023-04-28T22:10:45.651Z,97335.44
2023-04-28T22:13:12.908Z,97327.38
2023-04-28T22:15:39.864Z,97325.69
2023-04-28T22:18:07.832Z,97321.91
2023-04-28T22:20:34.755Z,97309.00
2023-04-28T22:23:01.366Z,97323.03
2023-04-28T22:25:27.976Z,97317.44
2023-04-28T22:27:54.553Z,97320.25
2023-04-28T22:30:22.196Z,97325.50
2023-04-28T22:32:49.790Z,97314.66
2023-04-28T22:35:16.876Z,97323.72
2023-04-28T22:37:43.795Z,97315.00
2023-04-28T22:40:11.230Z,97312.06
2023-04-28T22:42:39.003Z,97314.91
2023-04-28T22:45:06.769Z,97321.63
2023-04-28T22:47:34.402Z,97309.66
2023-04-28T22:50:01.211Z,97312.34
2023-04-28T22:52:27.828Z,97303.78
2023-04-28T22:54:54.439Z,97302.09
2023-04-28T22:57:21.073Z,97293.06
2023-04-28T22:59:47.672Z,97298.75
2023-04-28T23:02:14.321Z,97298.75
2023-04-28T23:04:41.223Z,97301.00
2023-04-28T23:07:07.924Z,97294.91
2023-04-28T23:09:36.233Z,97292.63
2023-04-28T23:12:06.335Z,97287.81
2023-04-28T23:14:33.356Z,97287.91
2023-04-28T23:16:59.967Z,97289.25
2023-04-28T23:19:26.594Z,97285.53
2023-04-28T23:21:54.464Z,97285.31
2023-04-28T23:24:21.216Z,97279.31
2023-04-28T23:26:47.890Z,97283.19
2023-04-28T23:29:14.547Z,97282.25
2023-04-28T23:31:41.355Z,97278.06
2023-04-28T23:34:08.383Z,97266.91
2023-04-28T23:36:35.704Z,97270.75
2023-04-28T23:39:02.479Z,97247.03
2023-04-28T23:41:29.267Z,97265.72
2023-04-28T23:43:55.921Z,97269.03
2023-04-28T23:46:22.793Z,97272.25
2023-04-28T23:48:49.549Z,97274.84
2023-04-28T23:51:16.389Z,97270.91
2023-04-28T23:53:43.220Z,97266.28
2023-04-28T23:56:09.870Z,97270.03
2023-04-28T23:58:36.509Z,97272.03
